CFE75V EGLC-EHRD
Flight info
| Callsign | CFE75V |
|---|---|
| Flight time | 0h 44m |
| Altitude | 21000 |
| Route | ODUKU M84 CLN P44 RATLO M197 REDFA |
| Aircraft | E190/M-SDE3GILORVW/S |
Departure
| Time | 2026-05-04 07:46 |
|---|---|
| Airport | London City Airport (EGLC) |
Arrival
| Time | 2026-05-04 08:31 |
|---|---|
| Airport | Rotterdam The Hague Airport (EHRD) |
| Time | Latitude | Longitude | Altitude | Speed | Heading |
|---|---|---|---|---|---|
| 2026-05-04 07:17 | 51.50445 | 0.04565 | 29 ft | 0 kts | 308° |
| 2026-05-04 07:41 | 51.50449 | 0.04564 | 1 ft | 1 kts | 339° |
| 2026-05-04 07:42 | 51.50456 | 0.04573 | 28 ft | 4 kts | 32° |
| 2026-05-04 07:42 | 51.50472 | 0.04644 | 28 ft | 8 kts | 78° |
| 2026-05-04 07:42 | 51.50471 | 0.04738 | 28 ft | 9 kts | 95° |
| 2026-05-04 07:42 | 51.50467 | 0.04853 | 28 ft | 11 kts | 93° |
| 2026-05-04 07:43 | 51.50461 | 0.04991 | 28 ft | 13 kts | 93° |
| 2026-05-04 07:43 | 51.50450 | 0.05149 | 28 ft | 15 kts | 94° |
| 2026-05-04 07:43 | 51.50446 | 0.05327 | 28 ft | 17 kts | 92° |
| 2026-05-04 07:43 | 51.50439 | 0.05524 | 28 ft | 18 kts | 94° |
| 2026-05-04 07:44 | 51.50433 | 0.05738 | 29 ft | 20 kts | 92° |
| 2026-05-04 07:44 | 51.50426 | 0.05968 | 29 ft | 21 kts | 92° |
| 2026-05-04 07:44 | 51.50418 | 0.06210 | 29 ft | 20 kts | 93° |
| 2026-05-04 07:44 | 51.50412 | 0.06433 | 29 ft | 17 kts | 93° |
| 2026-05-04 07:45 | 51.50415 | 0.06554 | 29 ft | 10 kts | 67° |
| 2026-05-04 07:45 | 51.50477 | 0.06572 | 29 ft | 10 kts | 327° |
| 2026-05-04 07:45 | 51.50492 | 0.06483 | 29 ft | 0 kts | 271° |
| 2026-05-04 07:45 | 51.50492 | 0.06482 | 29 ft | 1 kts | 271° |
| 2026-05-04 07:46 | 51.50495 | 0.06399 | 29 ft | 33 kts | 274° |
| 2026-05-04 07:46 | 51.50521 | 0.05600 | 29 ft | 108 kts | 272° |
| 2026-05-04 07:46 | 51.50585 | 0.04041 | 105 ft | 165 kts | 274° |
| 2026-05-04 07:46 | 51.50610 | 0.02054 | 840 ft | 183 kts | 272° |
| 2026-05-04 07:47 | 51.50615 | -0.00065 | 1809 ft | 201 kts | 276° |
| 2026-05-04 07:47 | 51.51101 | -0.02275 | 2529 ft | 221 kts | 308° |
| 2026-05-04 07:47 | 51.52353 | -0.03471 | 3082 ft | 210 kts | 356° |
| 2026-05-04 07:49 | 51.58240 | 0.05825 | 5917 ft | 218 kts | 76° |
| 2026-05-04 07:49 | 51.58628 | 0.08309 | 6326 ft | 241 kts | 77° |
| 2026-05-04 07:49 | 51.59043 | 0.11042 | 6763 ft | 261 kts | 77° |
| 2026-05-04 07:50 | 51.59474 | 0.13920 | 7235 ft | 278 kts | 77° |
| 2026-05-04 07:50 | 51.59929 | 0.16995 | 7905 ft | 286 kts | 77° |
| 2026-05-04 07:50 | 51.60333 | 0.20151 | 8685 ft | 289 kts | 87° |
| 2026-05-04 07:50 | 51.60086 | 0.23329 | 9541 ft | 288 kts | 105° |
| 2026-05-04 07:51 | 51.59602 | 0.26473 | 10338 ft | 292 kts | 102° |
| 2026-05-04 07:51 | 51.59609 | 0.29758 | 11105 ft | 300 kts | 76° |
| 2026-05-04 07:51 | 51.60376 | 0.32959 | 11674 ft | 316 kts | 66° |
| 2026-05-04 07:51 | 51.61362 | 0.36212 | 12240 ft | 329 kts | 64° |
| 2026-05-04 07:52 | 51.62383 | 0.39548 | 13071 ft | 335 kts | 65° |
| 2026-05-04 07:52 | 51.63401 | 0.42938 | 13962 ft | 339 kts | 65° |
| 2026-05-04 07:52 | 51.64429 | 0.46387 | 14813 ft | 343 kts | 65° |
| 2026-05-04 07:52 | 51.65453 | 0.49820 | 15618 ft | 348 kts | 65° |
| 2026-05-04 07:53 | 51.66515 | 0.53367 | 16406 ft | 353 kts | 65° |
| 2026-05-04 07:54 | 51.74449 | 0.79543 | 21002 ft | 400 kts | 65° |
| 2026-05-04 07:55 | 51.75656 | 0.83630 | 21031 ft | 416 kts | 65° |
| 2026-05-04 07:55 | 51.76908 | 0.87876 | 21048 ft | 422 kts | 65° |
| 2026-05-04 07:55 | 51.78177 | 0.92182 | 21045 ft | 425 kts | 65° |
| 2026-05-04 07:55 | 51.79449 | 0.96498 | 20998 ft | 425 kts | 65° |
| 2026-05-04 07:56 | 51.80722 | 1.00823 | 21004 ft | 426 kts | 65° |
| 2026-05-04 07:56 | 51.81989 | 1.05134 | 21007 ft | 425 kts | 65° |
| 2026-05-04 07:56 | 51.83255 | 1.09453 | 21009 ft | 425 kts | 65° |
| 2026-05-04 07:56 | 51.84520 | 1.13773 | 21008 ft | 425 kts | 65° |
| 2026-05-04 07:57 | 51.85749 | 1.18052 | 21013 ft | 425 kts | 66° |
| 2026-05-04 07:57 | 51.86918 | 1.22434 | 21006 ft | 425 kts | 67° |
| 2026-05-04 07:57 | 51.88082 | 1.26833 | 21007 ft | 425 kts | 67° |
| 2026-05-04 07:57 | 51.89252 | 1.31233 | 21007 ft | 425 kts | 67° |
| 2026-05-04 07:58 | 51.90423 | 1.35621 | 21007 ft | 425 kts | 67° |
| 2026-05-04 07:58 | 51.91597 | 1.40019 | 21004 ft | 425 kts | 67° |
| 2026-05-04 07:58 | 51.92771 | 1.44418 | 21005 ft | 425 kts | 67° |
| 2026-05-04 07:58 | 51.93943 | 1.48814 | 21002 ft | 426 kts | 67° |
| 2026-05-04 07:59 | 51.95110 | 1.53201 | 21007 ft | 427 kts | 67° |
| 2026-05-04 07:59 | 51.96268 | 1.57564 | 21004 ft | 427 kts | 67° |
| 2026-05-04 07:59 | 51.97395 | 1.61818 | 21006 ft | 427 kts | 67° |
| 2026-05-04 07:59 | 51.98567 | 1.66249 | 21007 ft | 427 kts | 67° |
| 2026-05-04 08:00 | 51.99528 | 1.70791 | 21017 ft | 426 kts | 75° |
| 2026-05-04 08:00 | 52.00265 | 1.75455 | 21016 ft | 426 kts | 77° |
| 2026-05-04 08:00 | 52.00967 | 1.80124 | 21000 ft | 426 kts | 77° |
| 2026-05-04 08:02 | 52.05974 | 2.12750 | 21000 ft | 427 kts | 77° |
| 2026-05-04 08:02 | 52.06689 | 2.17435 | 21000 ft | 427 kts | 77° |
| 2026-05-04 08:02 | 52.07400 | 2.22113 | 21000 ft | 427 kts | 77° |
| 2026-05-04 08:03 | 52.08111 | 2.26800 | 21000 ft | 427 kts | 77° |
| 2026-05-04 08:03 | 52.08820 | 2.31488 | 21000 ft | 427 kts | 77° |
| 2026-05-04 08:03 | 52.09519 | 2.36115 | 20995 ft | 427 kts | 77° |
| 2026-05-04 08:03 | 52.10223 | 2.40794 | 20856 ft | 422 kts | 77° |
| 2026-05-04 08:04 | 52.10907 | 2.45351 | 20516 ft | 406 kts | 77° |
| 2026-05-04 08:04 | 52.11222 | 2.49824 | 19890 ft | 395 kts | 97° |
| 2026-05-04 08:04 | 52.10512 | 2.54013 | 19458 ft | 378 kts | 117° |
| 2026-05-04 08:04 | 52.09309 | 2.57745 | 18924 ft | 369 kts | 121° |
| 2026-05-04 08:05 | 52.08116 | 2.61403 | 18434 ft | 363 kts | 120° |
| 2026-05-04 08:05 | 52.07000 | 2.65044 | 17929 ft | 356 kts | 118° |
| 2026-05-04 08:05 | 52.05952 | 2.68640 | 17492 ft | 349 kts | 117° |
| 2026-05-04 08:05 | 52.04931 | 2.72208 | 17039 ft | 348 kts | 117° |
| 2026-05-04 08:06 | 52.03929 | 2.75735 | 16589 ft | 349 kts | 117° |
| 2026-05-04 08:06 | 52.02915 | 2.79319 | 16113 ft | 349 kts | 117° |
| 2026-05-04 08:06 | 52.01903 | 2.82906 | 15665 ft | 348 kts | 117° |
| 2026-05-04 08:06 | 52.00896 | 2.86468 | 15207 ft | 346 kts | 117° |
| 2026-05-04 08:08 | 51.94028 | 3.10651 | 12081 ft | 331 kts | 116° |
| 2026-05-04 08:08 | 51.93070 | 3.14006 | 11653 ft | 326 kts | 116° |
| 2026-05-04 08:10 | 51.85846 | 3.39151 | 8433 ft | 284 kts | 116° |
| 2026-05-04 08:11 | 51.85009 | 3.42044 | 8040 ft | 284 kts | 116° |
| 2026-05-04 08:11 | 51.83338 | 3.47807 | 7306 ft | 282 kts | 116° |
| 2026-05-04 08:11 | 51.82507 | 3.50666 | 6925 ft | 280 kts | 116° |
| 2026-05-04 08:12 | 51.81683 | 3.53503 | 6550 ft | 278 kts | 116° |
| 2026-05-04 08:12 | 51.80863 | 3.56322 | 6226 ft | 275 kts | 115° |
| 2026-05-04 08:12 | 51.80099 | 3.59105 | 6030 ft | 270 kts | 107° |
| 2026-05-04 08:12 | 51.79976 | 3.62080 | 5862 ft | 272 kts | 83° |
| 2026-05-04 08:13 | 51.80328 | 3.65082 | 5766 ft | 272 kts | 77° |
| 2026-05-04 08:13 | 51.80743 | 3.68079 | 5668 ft | 273 kts | 78° |
| 2026-05-04 08:13 | 51.81113 | 3.71091 | 5564 ft | 273 kts | 79° |
| 2026-05-04 08:13 | 51.81451 | 3.74111 | 5474 ft | 273 kts | 80° |
| 2026-05-04 08:14 | 51.81777 | 3.77134 | 5385 ft | 272 kts | 80° |
| 2026-05-04 08:14 | 51.82096 | 3.80144 | 5291 ft | 272 kts | 80° |
| 2026-05-04 08:14 | 51.82413 | 3.83160 | 5196 ft | 271 kts | 80° |
| 2026-05-04 08:16 | 51.84591 | 4.04139 | 4532 ft | 270 kts | 80° |
| 2026-05-04 08:16 | 51.84897 | 4.07127 | 4437 ft | 267 kts | 80° |
| 2026-05-04 08:16 | 51.85211 | 4.10190 | 4375 ft | 279 kts | 80° |
| 2026-05-04 08:17 | 51.85526 | 4.13271 | 4225 ft | 275 kts | 81° |
| 2026-05-04 08:17 | 51.85831 | 4.16277 | 4148 ft | 269 kts | 81° |
| 2026-05-04 08:17 | 51.86128 | 4.19204 | 4113 ft | 267 kts | 81° |
| 2026-05-04 08:17 | 51.86429 | 4.22176 | 3996 ft | 269 kts | 81° |
| 2026-05-04 08:19 | 51.88485 | 4.42682 | 3292 ft | 248 kts | 81° |
| 2026-05-04 08:19 | 51.88754 | 4.45399 | 3177 ft | 242 kts | 81° |
| 2026-05-04 08:20 | 51.89013 | 4.48036 | 3083 ft | 239 kts | 81° |
| 2026-05-04 08:20 | 51.89275 | 4.50704 | 3001 ft | 241 kts | 81° |
| 2026-05-04 08:20 | 51.89539 | 4.53386 | 2923 ft | 242 kts | 81° |
| 2026-05-04 08:20 | 51.89814 | 4.56069 | 2842 ft | 241 kts | 77° |
| 2026-05-04 08:21 | 51.90583 | 4.58438 | 2733 ft | 240 kts | 48° |
| 2026-05-04 08:21 | 51.91783 | 4.60314 | 2663 ft | 240 kts | 43° |
| 2026-05-04 08:21 | 51.92968 | 4.62228 | 2589 ft | 240 kts | 47° |
| 2026-05-04 08:21 | 51.94065 | 4.64228 | 2497 ft | 233 kts | 50° |
| 2026-05-04 08:22 | 51.95085 | 4.66205 | 2387 ft | 224 kts | 51° |
| 2026-05-04 08:22 | 51.96042 | 4.68105 | 2340 ft | 210 kts | 51° |
| 2026-05-04 08:24 | 52.02731 | 4.76902 | 2076 ft | 188 kts | 352° |
| 2026-05-04 08:24 | 52.03986 | 4.76351 | 2081 ft | 187 kts | 334° |
| 2026-05-04 08:24 | 52.04982 | 4.75025 | 2069 ft | 186 kts | 306° |
| 2026-05-04 08:24 | 52.05453 | 4.73122 | 2022 ft | 186 kts | 277° |
| 2026-05-04 08:25 | 52.05322 | 4.71060 | 2014 ft | 184 kts | 257° |
| 2026-05-04 08:25 | 52.05146 | 4.68998 | 2017 ft | 184 kts | 267° |
| 2026-05-04 08:25 | 52.04890 | 4.66985 | 1978 ft | 183 kts | 239° |
| 2026-05-04 08:25 | 52.04125 | 4.65337 | 2006 ft | 185 kts | 231° |
| 2026-05-04 08:26 | 52.03411 | 4.63615 | 2008 ft | 184 kts | 239° |
| 2026-05-04 08:27 | 51.99149 | 4.52739 | 1070 ft | 130 kts | 236° |
| 2026-05-04 08:28 | 51.98661 | 4.51505 | 904 ft | 130 kts | 236° |
| 2026-05-04 08:28 | 51.98170 | 4.50272 | 731 ft | 130 kts | 237° |
| 2026-05-04 08:28 | 51.97684 | 4.49046 | 570 ft | 128 kts | 237° |
| 2026-05-04 08:28 | 51.97201 | 4.47834 | 394 ft | 128 kts | 237° |
| 2026-05-04 08:29 | 51.96720 | 4.46633 | 225 ft | 128 kts | 237° |
| 2026-05-04 08:29 | 51.96247 | 4.45441 | 66 ft | 129 kts | 237° |
| 2026-05-04 08:29 | 51.95801 | 4.44309 | -2 ft | 107 kts | 238° |
| 2026-05-04 08:31 | 51.95210 | 4.43472 | -1 ft | 10 kts | 144° |
| 2026-05-04 08:33 | 51.95041 | 4.43560 | 0 ft | 1 kts | 326° |
| 2026-05-04 08:33 | 51.95043 | 4.43558 | 0 ft | 0 kts | 326° |